Terminal Aerodrome Forecast
Issued by NWS

Home | Current Version | Previous Version | Text Only | Print | Product List | Glossary On
Versions: 1 2 3 4 5 6 7 8 9 10 11 12 13 14 15 16 17 18
000
FTUS45 KFGZ 240020 AAA
TAFSEZ
TAF AMD
KSEZ 240020Z 2400/2424 VRB09KT P6SM VCTS SCT080CB BKN120
      TEMPO 2400/2402 VRB15G30KT 2SM TSRA BKN060CB OVC100
     FM240200 VRB05KT P6SM SCT100
     FM241800 18010KT P6SM SCT100=

USA.gov is the U.S. government's official web portal to all federal, state and local government web resources and services.